createdAt,value
2023-01-20T00:00:33.500Z,16.17
2023-01-20T00:02:59.970Z,16.48
2023-01-20T00:05:26.587Z,16.48
2023-01-20T00:07:53.276Z,15.93
2023-01-20T00:10:19.797Z,15.98
2023-01-20T00:12:46.276Z,16.00
2023-01-20T00:15:13.032Z,16.23
2023-01-20T00:17:39.595Z,16.45
2023-01-20T00:20:06.543Z,16.30
2023-01-20T00:22:34.118Z,15.80
2023-01-20T00:25:00.825Z,15.63
2023-01-20T00:27:27.309Z,16.40
2023-01-20T00:29:53.842Z,17.38
2023-01-20T00:32:20.295Z,16.13
2023-01-20T00:34:46.710Z,15.70
2023-01-20T00:37:13.158Z,16.23
2023-01-20T00:39:39.626Z,16.80
2023-01-20T00:42:06.389Z,17.30
2023-01-20T00:44:32.833Z,16.95
2023-01-20T00:46:59.330Z,16.65
2023-01-20T00:49:25.744Z,16.10
2023-01-20T00:51:52.161Z,14.85
2023-01-20T00:54:18.639Z,16.73
2023-01-20T00:56:45.212Z,16.25
2023-01-20T00:59:11.848Z,17.20
2023-01-20T01:01:38.363Z,15.48
2023-01-20T01:04:05.122Z,15.55
2023-01-20T01:06:31.590Z,16.17
2023-01-20T01:08:58.099Z,16.42
2023-01-20T01:11:24.662Z,16.08
2023-01-20T01:13:51.262Z,16.50
2023-01-20T01:16:17.856Z,17.23
2023-01-20T01:18:44.446Z,15.60
2023-01-20T01:21:14.107Z,15.95
2023-01-20T01:23:40.720Z,16.40
2023-01-20T01:26:07.274Z,16.38
2023-01-20T01:28:33.734Z,16.10
2023-01-20T01:31:04.838Z,14.98
2023-01-20T01:33:32.674Z,15.13
2023-01-20T01:36:01.157Z,14.60
2023-01-20T01:38:29.074Z,14.50
2023-01-20T01:40:56.318Z,16.48
2023-01-20T01:43:26.847Z,15.93
2023-01-20T01:45:53.804Z,10.95
2023-01-20T01:48:33.686Z,17.63
2023-01-20T01:51:09.165Z,16.85
2023-01-20T01:53:48.627Z,15.27
2023-01-20T01:56:16.044Z,15.30
2023-01-20T01:58:46.422Z,15.25
2023-01-20T02:01:13.257Z,16.65
2023-01-20T02:03:54.617Z,15.15
2023-01-20T02:07:35.789Z,14.82
2023-01-20T02:10:02.373Z,14.57
2023-01-20T02:12:29.523Z,15.88
2023-01-20T02:14:59.492Z,15.35
2023-01-20T02:17:31.405Z,15.20
2023-01-20T02:20:16.220Z,15.63
2023-01-20T02:22:56.080Z,15.40
2023-01-20T02:25:22.430Z,14.60
2023-01-20T02:28:12.302Z,14.75
2023-01-20T02:31:09.860Z,14.85
2023-01-20T02:34:03.434Z,14.57
2023-01-20T02:36:45.458Z,15.27
2023-01-20T02:39:49.458Z,13.73
2023-01-20T02:42:32.051Z,15.30
2023-01-20T02:45:09.406Z,15.57
2023-01-20T02:47:43.232Z,15.73
2023-01-20T02:50:27.461Z,15.27
2023-01-20T02:52:57.755Z,16.05
2023-01-20T02:55:34.051Z,15.13
2023-01-20T02:58:08.320Z,17.02
2023-01-20T03:00:44.680Z,16.27
2023-01-20T03:03:15.375Z,17.98
2023-01-20T03:05:49.191Z,17.40
2023-01-20T03:08:18.045Z,17.92
2023-01-20T03:10:47.784Z,16.35
2023-01-20T03:13:19.160Z,17.00
2023-01-20T03:15:59.320Z,18.25
2023-01-20T03:18:29.339Z,18.60
2023-01-20T03:20:59.425Z,19.63
2023-01-20T03:23:30.407Z,18.13
2023-01-20T03:25:57.847Z,18.42
2023-01-20T03:28:24.372Z,19.67
2023-01-20T03:30:52.091Z,19.38
2023-01-20T03:33:18.949Z,19.48
2023-01-20T03:35:45.532Z,22.38
2023-01-20T03:38:12.217Z,19.73
2023-01-20T03:40:46.794Z,20.55
2023-01-20T03:43:42.420Z,20.15
2023-01-20T03:46:19.470Z,21.42
2023-01-20T03:48:53.916Z,20.75
2023-01-20T03:51:34.636Z,22.80
2023-01-20T03:54:06.961Z,21.63
2023-01-20T03:56:41.221Z,20.33
2023-01-20T03:59:11.188Z,21.23
2023-01-20T04:01:41.785Z,22.17
2023-01-20T04:04:11.926Z,21.20
2023-01-20T04:06:41.386Z,22.40
2023-01-20T04:09:12.905Z,22.13
2023-01-20T04:14:08.821Z,21.58
2023-01-20T04:16:36.888Z,22.70
2023-01-20T04:19:03.597Z,23.65
2023-01-20T04:21:35.293Z,23.95
2023-01-20T04:24:04.473Z,23.83
2023-01-20T04:26:30.936Z,23.48
2023-01-20T04:28:57.543Z,22.70
2023-01-20T04:31:30.536Z,24.67
2023-01-20T04:33:57.811Z,24.65
2023-01-20T04:36:24.284Z,25.45
2023-01-20T04:38:50.745Z,25.50
2023-01-20T04:41:17.211Z,25.30
2023-01-20T04:43:45.250Z,25.92
2023-01-20T04:46:12.581Z,24.45
2023-01-20T04:48:39.563Z,24.88
2023-01-20T04:51:07.631Z,24.45
2023-01-20T04:53:34.810Z,24.27
2023-01-20T04:56:01.349Z,23.98
2023-01-20T04:58:27.990Z,24.08
2023-01-20T05:00:54.560Z,26.13
2023-01-20T05:03:21.561Z,24.80
2023-01-20T05:05:55.024Z,26.60
2023-01-20T05:08:21.634Z,24.63
2023-01-20T05:10:48.241Z,25.50
2023-01-20T05:13:14.712Z,25.52
2023-01-20T05:15:42.610Z,27.30
2023-01-20T05:18:09.163Z,26.23
2023-01-20T05:20:35.694Z,27.85
2023-01-20T05:23:02.257Z,25.58
2023-01-20T05:25:28.732Z,26.98
2023-01-20T05:27:55.153Z,26.67
2023-01-20T05:30:21.732Z,25.02
2023-01-20T05:33:03.309Z,26.92
2023-01-20T05:35:29.789Z,24.92
2023-01-20T05:37:57.081Z,26.02
2023-01-20T05:40:23.680Z,26.15
2023-01-20T05:42:50.141Z,27.38
2023-01-20T05:45:17.347Z,25.75
2023-01-20T05:47:43.991Z,26.00
2023-01-20T05:50:11.282Z,24.75
2023-01-20T05:52:37.778Z,26.35
2023-01-20T05:55:05.243Z,26.73
2023-01-20T05:57:31.702Z,27.50
2023-01-20T05:59:58.188Z,26.23
2023-01-20T06:02:24.790Z,25.30
2023-01-20T06:04:51.255Z,24.55
2023-01-20T06:07:17.844Z,24.88
2023-01-20T06:09:44.451Z,25.40
2023-01-20T06:12:10.877Z,25.17
2023-01-20T06:14:37.456Z,23.65
2023-01-20T06:17:04.031Z,25.50
2023-01-20T06:19:30.645Z,25.40
2023-01-20T06:21:57.111Z,24.52
2023-01-20T06:24:23.540Z,24.85
2023-01-20T06:26:51.027Z,24.20
2023-01-20T06:29:17.759Z,24.23
2023-01-20T06:31:44.900Z,24.48
2023-01-20T06:34:12.312Z,28.05
2023-01-20T06:36:39.493Z,27.10
2023-01-20T06:39:06.205Z,27.10
2023-01-20T06:41:32.704Z,27.08
2023-01-20T06:43:59.211Z,25.70
2023-01-20T06:46:25.993Z,26.08
2023-01-20T06:48:52.660Z,28.05
2023-01-20T06:51:20.725Z,27.83
2023-01-20T06:53:47.698Z,27.60
2023-01-20T06:56:15.759Z,29.50
2023-01-20T06:58:42.366Z,29.20
2023-01-20T07:01:18.531Z,28.35
2023-01-20T07:03:45.222Z,29.35
2023-01-20T07:06:15.965Z,29.80
2023-01-20T07:08:45.973Z,22.20
2023-01-20T07:11:13.237Z,30.02
2023-01-20T07:13:39.885Z,30.52
2023-01-20T07:16:08.866Z,29.42
2023-01-20T07:18:37.685Z,29.77
2023-01-20T07:21:04.941Z,29.73
2023-01-20T07:23:33.603Z,28.27
2023-01-20T07:26:08.088Z,28.77
2023-01-20T07:28:35.408Z,30.13
2023-01-20T07:31:10.927Z,28.10
2023-01-20T07:33:38.006Z,28.15
2023-01-20T07:36:05.375Z,28.83
2023-01-20T07:38:32.357Z,28.40
2023-01-20T07:41:05.092Z,29.60
2023-01-20T07:43:32.455Z,29.45
2023-01-20T07:46:04.407Z,29.45
2023-01-20T07:48:32.490Z,31.17
2023-01-20T07:51:05.734Z,32.80
2023-01-20T07:53:34.433Z,31.98
2023-01-20T07:56:06.376Z,32.80
2023-01-20T07:58:33.542Z,32.33
2023-01-20T08:01:11.591Z,31.88
2023-01-20T08:03:38.395Z,33.20
2023-01-20T08:06:06.751Z,34.35
2023-01-20T08:08:34.087Z,34.03
2023-01-20T08:11:01.402Z,37.05
2023-01-20T08:13:32.050Z,34.22
2023-01-20T08:16:04.034Z,32.30
2023-01-20T08:18:32.195Z,31.48
2023-01-20T08:20:58.645Z,33.85
2023-01-20T08:23:25.597Z,33.17
2023-01-20T08:26:00.092Z,34.45
2023-01-20T08:28:27.092Z,35.85
2023-01-20T08:30:54.136Z,33.72
2023-01-20T08:33:21.052Z,32.20
2023-01-20T08:35:47.919Z,33.58
2023-01-20T08:38:14.646Z,33.42
2023-01-20T08:40:43.218Z,34.95
2023-01-20T08:43:09.902Z,34.85
2023-01-20T08:45:36.471Z,35.60
2023-01-20T08:48:02.996Z,33.72
2023-01-20T08:50:29.518Z,37.15
2023-01-20T08:52:55.964Z,34.60
2023-01-20T08:55:22.513Z,34.42
2023-01-20T08:57:49.017Z,34.30
2023-01-20T09:00:16.301Z,31.48
2023-01-20T09:02:42.823Z,32.83
2023-01-20T09:05:09.756Z,34.08
2023-01-20T09:07:36.314Z,32.80
2023-01-20T09:10:03.827Z,34.63
2023-01-20T09:12:30.318Z,32.97
2023-01-20T09:14:56.771Z,34.28
2023-01-20T09:17:23.386Z,34.53
2023-01-20T09:19:49.975Z,34.28
2023-01-20T09:22:16.660Z,31.98
2023-01-20T09:24:43.377Z,32.00
2023-01-20T09:27:09.823Z,32.05
2023-01-20T09:29:36.714Z,33.05
2023-01-20T09:32:03.314Z,33.55
2023-01-20T09:34:31.408Z,34.35
2023-01-20T09:37:19.181Z,33.65
2023-01-20T09:40:05.133Z,33.58
2023-01-20T09:43:07.800Z,31.70
2023-01-20T09:45:43.547Z,35.10
2023-01-20T09:48:40.796Z,33.08
2023-01-20T09:51:36.493Z,31.40
2023-01-20T09:54:16.981Z,32.15
2023-01-20T09:56:47.794Z,33.38
2023-01-20T09:59:36.136Z,34.63
2023-01-20T10:02:11.428Z,34.45
2023-01-20T10:04:46.731Z,32.95
2023-01-20T10:07:15.892Z,31.73
2023-01-20T10:09:45.211Z,32.67
2023-01-20T10:12:19.530Z,34.40
2023-01-20T10:14:55.785Z,33.05
2023-01-20T10:17:33.912Z,34.85
2023-01-20T10:20:12.749Z,33.03
2023-01-20T10:22:50.352Z,31.58
2023-01-20T10:25:52.215Z,33.03
2023-01-20T10:30:49.456Z,30.92
2023-01-20T10:33:24.144Z,31.50
2023-01-20T10:35:53.996Z,31.77
2023-01-20T10:38:38.301Z,30.73
2023-01-20T10:41:20.340Z,32.30
2023-01-20T10:43:48.112Z,33.95
2023-01-20T10:46:20.434Z,32.58
2023-01-20T10:48:55.985Z,32.03
2023-01-20T10:51:40.730Z,32.05
2023-01-20T10:54:22.881Z,31.58
2023-01-20T10:56:59.013Z,32.60
2023-01-20T10:59:31.420Z,33.90
2023-01-20T11:02:12.051Z,35.70
2023-01-20T11:04:39.158Z,32.90
2023-01-20T11:07:08.684Z,31.98
2023-01-20T11:09:38.158Z,33.15
2023-01-20T11:12:14.159Z,33.40
2023-01-20T11:14:41.383Z,32.13
2023-01-20T11:17:14.670Z,31.48
2023-01-20T11:19:55.345Z,31.77
2023-01-20T11:22:34.373Z,25.83
2023-01-20T11:25:04.078Z,32.20
2023-01-20T11:27:41.420Z,29.05
2023-01-20T11:30:23.444Z,29.75
2023-01-20T11:33:25.982Z,31.17
2023-01-20T11:36:16.801Z,29.77
2023-01-20T11:38:49.663Z,31.73
2023-01-20T11:41:21.053Z,30.73
2023-01-20T11:43:49.312Z,30.73
2023-01-20T11:46:19.544Z,30.52
2023-01-20T11:48:46.317Z,30.17
2023-01-20T11:51:18.992Z,31.35
2023-01-20T11:53:46.755Z,30.15
2023-01-20T11:56:24.678Z,30.35
2023-01-20T11:58:55.493Z,28.60
2023-01-20T12:01:30.916Z,28.42
2023-01-20T12:04:14.760Z,29.27
2023-01-20T12:06:53.901Z,29.63
2023-01-20T12:09:27.952Z,28.70
2023-01-20T12:11:57.521Z,29.33
2023-01-20T12:14:42.335Z,30.05
2023-01-20T12:17:09.012Z,30.13
2023-01-20T12:19:59.151Z,30.48
2023-01-20T12:22:58.873Z,30.42
2023-01-20T12:25:37.079Z,27.90
2023-01-20T12:28:13.349Z,27.23
2023-01-20T12:30:55.073Z,28.17
2023-01-20T12:33:24.872Z,27.60
2023-01-20T12:36:11.906Z,27.60
2023-01-20T12:39:00.371Z,27.15
2023-01-20T12:41:35.082Z,27.13
2023-01-20T12:44:36.577Z,26.60
2023-01-20T12:47:30.925Z,28.40
2023-01-20T12:49:57.416Z,27.65
2023-01-20T12:52:54.924Z,28.50
2023-01-20T12:55:45.037Z,29.10
2023-01-20T12:58:27.753Z,28.02
2023-01-20T13:01:16.843Z,28.27
2023-01-20T13:03:49.302Z,30.00
2023-01-20T13:06:42.512Z,28.83
2023-01-20T13:09:27.998Z,30.00
2023-01-20T13:12:26.055Z,30.38
2023-01-20T13:15:15.431Z,28.65
2023-01-20T13:17:47.998Z,29.60
2023-01-20T13:20:26.387Z,29.70
2023-01-20T13:22:54.679Z,28.30
2023-01-20T13:25:22.886Z,29.52
2023-01-20T13:27:51.341Z,33.92
2023-01-20T13:30:44.389Z,30.45
2023-01-20T13:33:38.877Z,27.60
2023-01-20T13:36:14.424Z,25.58
2023-01-20T13:38:41.152Z,24.92
2023-01-20T13:41:08.841Z,25.45
2023-01-20T13:43:43.976Z,25.80
2023-01-20T13:46:15.108Z,25.98
2023-01-20T13:49:33.399Z,27.30
2023-01-20T13:51:59.962Z,24.30
2023-01-20T13:54:28.946Z,23.92
2023-01-20T13:57:28.118Z,23.08
2023-01-20T13:59:55.925Z,22.75
2023-01-20T14:02:28.691Z,22.30
2023-01-20T14:04:55.721Z,23.48
2023-01-20T14:07:23.785Z,23.67
2023-01-20T14:09:55.705Z,23.70
2023-01-20T14:12:22.323Z,21.38
2023-01-20T14:14:50.221Z,23.10
2023-01-20T14:17:23.283Z,23.48
2023-01-20T14:19:52.600Z,23.25
2023-01-20T14:22:23.690Z,24.98
2023-01-20T14:24:59.909Z,23.77
2023-01-20T14:27:31.867Z,25.33
2023-01-20T14:30:17.023Z,24.38
2023-01-20T14:32:43.879Z,23.70
2023-01-20T14:35:17.147Z,25.38
2023-01-20T14:37:48.378Z,26.10
2023-01-20T14:40:15.122Z,26.85
2023-01-20T14:42:42.135Z,26.23
2023-01-20T14:45:23.571Z,26.35
2023-01-20T14:47:52.478Z,26.13
2023-01-20T14:50:20.098Z,25.45
2023-01-20T14:52:47.397Z,24.88
2023-01-20T14:55:58.454Z,26.23
2023-01-20T14:58:25.083Z,18.20
2023-01-20T15:00:54.931Z,25.30
2023-01-20T15:03:28.255Z,25.15
2023-01-20T15:06:00.583Z,24.20
2023-01-20T15:08:56.773Z,26.63
2023-01-20T15:11:28.354Z,27.98
2023-01-20T15:13:54.806Z,28.17
2023-01-20T15:16:43.986Z,26.90
2023-01-20T15:19:13.170Z,28.40
2023-01-20T15:22:00.780Z,28.50
2023-01-20T15:24:32.719Z,29.25
2023-01-20T15:27:01.678Z,29.92
2023-01-20T15:29:35.562Z,31.05
2023-01-20T15:32:10.337Z,33.00
2023-01-20T15:34:36.799Z,29.60
2023-01-20T15:37:14.202Z,32.03
2023-01-20T15:39:40.657Z,31.13
2023-01-20T15:42:11.598Z,30.85
2023-01-20T15:44:38.111Z,21.70
2023-01-20T15:47:31.323Z,33.70
2023-01-20T15:49:58.321Z,33.65
2023-01-20T15:52:24.928Z,34.47
2023-01-20T15:54:51.372Z,34.58
2023-01-20T15:57:18.199Z,31.85
2023-01-20T15:59:46.093Z,33.55
2023-01-20T16:02:20.948Z,32.75
2023-01-20T16:04:47.509Z,33.55
2023-01-20T16:07:19.538Z,35.35
2023-01-20T16:09:47.236Z,33.35
2023-01-20T16:12:18.602Z,30.52
2023-01-20T16:14:45.684Z,31.77
2023-01-20T16:17:23.349Z,33.88
2023-01-20T16:19:50.421Z,32.33
2023-01-20T16:22:17.221Z,33.22
2023-01-20T16:24:44.065Z,33.53
2023-01-20T16:27:19.819Z,33.00
2023-01-20T16:29:46.433Z,32.03
2023-01-20T16:32:15.228Z,33.10
2023-01-20T16:34:44.238Z,32.85
2023-01-20T16:37:13.632Z,32.10
2023-01-20T16:39:40.136Z,32.50
2023-01-20T16:42:06.693Z,33.95
2023-01-20T16:44:33.291Z,33.30
2023-01-20T16:47:00.234Z,34.42
2023-01-20T16:49:26.789Z,32.63
2023-01-20T16:51:53.352Z,33.25
2023-01-20T16:54:19.846Z,33.97
2023-01-20T16:56:46.356Z,32.92
2023-01-20T16:59:13.172Z,34.05
2023-01-20T17:01:40.311Z,34.20
2023-01-20T17:04:06.749Z,33.60
2023-01-20T17:06:34.615Z,32.67
2023-01-20T17:09:03.784Z,34.47
2023-01-20T17:11:32.857Z,31.88
2023-01-20T17:14:02.062Z,34.00
2023-01-20T17:16:29.095Z,34.28
2023-01-20T17:18:58.445Z,32.70
2023-01-20T17:21:27.451Z,36.13
2023-01-20T17:23:56.911Z,37.85
2023-01-20T17:26:24.448Z,38.97
2023-01-20T17:29:10.315Z,36.85
2023-01-20T17:31:37.192Z,36.75
2023-01-20T17:34:05.225Z,38.42
2023-01-20T17:36:34.547Z,38.95
2023-01-20T17:39:02.749Z,38.33
2023-01-20T17:41:29.359Z,41.03
2023-01-20T17:43:55.818Z,40.25
2023-01-20T17:46:28.066Z,40.65
2023-01-20T17:48:59.105Z,39.58
2023-01-20T17:51:28.026Z,38.90
2023-01-20T17:53:55.033Z,37.88
2023-01-20T17:56:22.642Z,39.78
2023-01-20T17:58:49.643Z,38.45
2023-01-20T18:01:17.507Z,37.67
2023-01-20T18:03:45.190Z,38.35
2023-01-20T18:06:13.857Z,36.75
2023-01-20T18:08:40.679Z,34.30
2023-01-20T18:11:15.019Z,35.85
2023-01-20T18:13:44.748Z,36.90
2023-01-20T18:16:13.709Z,37.60
2023-01-20T18:18:41.542Z,37.78
2023-01-20T18:21:22.460Z,37.65
2023-01-20T18:23:50.170Z,34.38
2023-01-20T18:26:21.443Z,34.72
2023-01-20T18:28:48.331Z,35.78
2023-01-20T18:31:18.724Z,35.35
2023-01-20T18:33:48.756Z,35.10
2023-01-20T18:36:25.901Z,34.83
2023-01-20T18:38:54.898Z,35.15
2023-01-20T18:41:21.874Z,33.60
2023-01-20T18:43:49.148Z,33.72
2023-01-20T18:46:16.419Z,33.00
2023-01-20T18:48:47.380Z,33.80
2023-01-20T18:51:15.854Z,33.08
2023-01-20T18:53:44.281Z,34.20
2023-01-20T18:56:13.114Z,32.20
2023-01-20T18:58:42.984Z,33.40
2023-01-20T19:01:12.190Z,33.88
2023-01-20T19:03:39.559Z,32.13
2023-01-20T19:06:08.475Z,33.55
2023-01-20T19:08:34.915Z,32.58
2023-01-20T19:11:02.310Z,33.35
2023-01-20T19:13:29.225Z,33.33
2023-01-20T19:15:56.126Z,35.15
2023-01-20T19:18:22.736Z,34.50
2023-01-20T19:20:49.175Z,33.58
2023-01-20T19:23:15.666Z,34.42
2023-01-20T19:25:42.177Z,37.05
2023-01-20T19:28:09.612Z,35.45
2023-01-20T19:30:36.387Z,33.95
2023-01-20T19:33:02.900Z,35.00
2023-01-20T19:35:31.562Z,36.20
2023-01-20T19:37:58.183Z,34.95
2023-01-20T19:40:24.747Z,35.42
2023-01-20T19:42:52.560Z,32.45
2023-01-20T19:45:19.149Z,33.42
2023-01-20T19:47:45.613Z,31.98
2023-01-20T19:50:12.196Z,29.83
2023-01-20T19:52:38.604Z,30.67
2023-01-20T19:55:05.637Z,32.42
2023-01-20T19:57:32.191Z,29.45
2023-01-20T19:59:58.914Z,30.75
2023-01-20T20:02:27.472Z,31.98
2023-01-20T20:04:53.993Z,30.15
2023-01-20T20:07:20.640Z,31.35
2023-01-20T20:09:47.097Z,29.27
2023-01-20T20:12:13.678Z,29.88
2023-01-20T20:14:40.249Z,28.23
2023-01-20T20:17:06.708Z,30.95
2023-01-20T20:19:33.171Z,29.30
2023-01-20T20:21:59.566Z,29.05
2023-01-20T20:24:25.992Z,29.90
2023-01-20T20:26:52.447Z,31.38
2023-01-20T20:29:19.493Z,31.35
2023-01-20T20:31:46.857Z,28.48
2023-01-20T20:34:16.803Z,28.52
2023-01-20T20:36:43.516Z,29.42
2023-01-20T20:39:13.654Z,28.90
2023-01-20T20:41:40.210Z,25.25
2023-01-20T20:44:06.972Z,26.50
2023-01-20T20:46:33.579Z,27.02
2023-01-20T20:49:01.137Z,28.58
2023-01-20T20:51:32.998Z,29.00
2023-01-20T20:54:01.503Z,28.90
2023-01-20T20:56:31.614Z,28.70
2023-01-20T20:59:02.247Z,28.92
2023-01-20T21:01:31.400Z,28.55
2023-01-20T21:04:00.186Z,27.42
2023-01-20T21:06:26.674Z,27.73
2023-01-20T21:08:53.172Z,28.52
2023-01-20T21:11:22.294Z,27.20
2023-01-20T21:13:51.396Z,28.45
2023-01-20T21:16:21.939Z,27.13
2023-01-20T21:18:49.559Z,28.60
2023-01-20T21:21:19.546Z,27.33
2023-01-20T21:23:51.436Z,28.55
2023-01-20T21:26:18.006Z,27.95
2023-01-20T21:28:44.633Z,28.92
2023-01-20T21:31:14.353Z,26.33
2023-01-20T21:33:42.413Z,27.83
2023-01-20T21:36:12.393Z,26.33
2023-01-20T21:38:41.522Z,27.00
2023-01-20T21:41:09.974Z,25.40
2023-01-20T21:44:00.849Z,26.27
2023-01-20T21:46:29.593Z,24.93
2023-01-20T21:49:14.514Z,24.05
2023-01-20T21:51:59.925Z,25.55
2023-01-20T21:54:30.372Z,23.83
2023-01-20T21:56:57.635Z,22.58
2023-01-20T21:59:24.105Z,24.10
2023-01-20T22:01:51.503Z,23.33
2023-01-20T22:04:18.753Z,24.35
2023-01-20T22:06:45.278Z,24.35
2023-01-20T22:09:12.422Z,23.42
2023-01-20T22:11:38.937Z,23.65
2023-01-20T22:14:05.546Z,22.40
2023-01-20T22:16:32.373Z,23.58
2023-01-20T22:18:58.876Z,21.50
2023-01-20T22:21:25.581Z,21.90
2023-01-20T22:23:52.340Z,20.50
2023-01-20T22:26:19.267Z,20.77
2023-01-20T22:28:45.735Z,20.05
2023-01-20T22:31:19.954Z,20.63
2023-01-20T22:33:51.576Z,20.05
2023-01-20T22:36:18.720Z,18.63
2023-01-20T22:38:46.201Z,19.83
2023-01-20T22:41:12.756Z,19.73
2023-01-20T22:43:41.168Z,18.75
2023-01-20T22:46:07.687Z,19.95
2023-01-20T22:48:34.535Z,18.70
2023-01-20T22:51:09.786Z,18.58
2023-01-20T22:53:37.134Z,18.05
2023-01-20T22:56:10.067Z,18.35
2023-01-20T22:58:37.303Z,17.90
2023-01-20T23:01:05.255Z,17.48
2023-01-20T23:03:31.855Z,17.77
2023-01-20T23:05:59.919Z,17.95
2023-01-20T23:08:28.317Z,15.80
2023-01-20T23:10:56.526Z,16.20
2023-01-20T23:13:23.262Z,15.75
2023-01-20T23:15:51.060Z,16.77
2023-01-20T23:18:18.836Z,15.70
2023-01-20T23:20:52.497Z,15.63
2023-01-20T23:23:20.537Z,16.60
2023-01-20T23:25:47.837Z,15.48
2023-01-20T23:28:15.145Z,15.90
2023-01-20T23:30:42.198Z,15.18
2023-01-20T23:33:10.582Z,15.40
2023-01-20T23:35:39.026Z,16.15
2023-01-20T23:38:06.878Z,17.52
2023-01-20T23:40:34.173Z,16.42
2023-01-20T23:43:00.886Z,17.23
2023-01-20T23:45:28.782Z,17.05
2023-01-20T23:47:55.521Z,18.10
2023-01-20T23:50:22.000Z,17.25
2023-01-20T23:52:48.429Z,15.23
2023-01-20T23:55:14.856Z,15.32
2023-01-20T23:57:41.336Z,15.75
